Time;durP1;ratioP1;P1;durP2;ratioP2;P2;SDS_P1;SDS_P2;PMS_P1;PMS_P2;Temp;Humidity;BMP_temperature;BMP_pressure;BME280_temperature;BME280_humidity;BME280_pressure;Samples;Min_cycle;Max_cycle;Signal;HPM_P1;HPM_P2
2021/07/07 00:00:23;;;;;;;;;;;;;;;-142.75;57.92;76501.41;5063058;28;20293;-81
2021/07/07 00:02:48;;;;;;;;;;;;;;;-142.75;58.60;76519.13;5065131;28;19924;-80
2021/07/07 00:05:14;;;;;;;;;;;;;;;-142.75;58.28;76517.16;5075879;28;19916;-81
2021/07/07 00:07:40;;;;;;;;;;;;;;;-142.75;59.03;76530.91;5073574;28;20314;-87
2021/07/07 00:10:06;;;;;;;;;;;;;;;-142.75;58.97;76534.84;5060134;28;19916;-80
2021/07/07 00:12:32;;;;;;;;;;;;;;;-142.75;59.38;76542.72;5063099;28;19921;-81
2021/07/07 00:14:58;;;;;;;;;;;;;;;-142.75;59.25;76542.72;5068951;28;20003;-81
2021/07/07 00:17:23;;;;;;;;;;;;;;;-142.75;58.91;76546.66;5066366;28;19935;-78
2021/07/07 00:19:48;;;;;;;;;;;;;;;-142.75;59.18;76544.69;5069486;28;19916;-78
2021/07/07 00:22:14;;;;;;;;;;;;;;;-142.75;59.99;76550.59;5086515;28;19916;-81
2021/07/07 00:24:40;;;;;;;;;;;;;;;-142.75;59.38;76550.59;5075093;28;19922;-79
2021/07/07 00:27:05;;;;;;;;;;;;;;;-142.75;59.17;76542.72;5073921;28;19916;-79
2021/07/07 00:29:30;;;;;;;;;;;;;;;-142.75;59.36;76546.66;5081076;28;19916;-81
2021/07/07 00:31:55;;;;;;;;;;;;;;;-142.75;59.63;76546.66;5085514;28;20425;-80
2021/07/07 00:34:20;;;;;;;;;;;;;;;-142.75;59.97;76546.66;5074732;28;19916;-79
2021/07/07 00:36:46;;;;;;;;;;;;;;;-142.75;59.82;76544.69;5065586;28;20278;-80
2021/07/07 00:39:11;;;;;;;;;;;;;;;-142.75;58.39;76536.84;5072961;28;19916;-82
2021/07/07 00:41:36;;;;;;;;;;;;;;;-142.75;58.95;76536.84;5063456;28;19926;-79
2021/07/07 00:44:01;;;;;;;;;;;;;;;-142.75;58.79;76534.84;5079755;28;19964;-82
2021/07/07 00:46:27;;;;;;;;;;;;;;;-142.75;58.63;76536.84;5068902;28;20003;-80
2021/07/07 00:48:52;;;;;;;;;;;;;;;-142.75;58.74;76538.78;5072074;28;20267;-80
2021/07/07 00:51:17;;;;;;;;;;;;;;;-142.75;59.04;76544.69;5072434;28;20419;-79
2021/07/07 00:53:43;;;;;;;;;;;;;;;-142.75;58.94;76544.69;5066236;28;19920;-82
2021/07/07 00:56:09;;;;;;;;;;;;;;;-142.75;58.43;76546.66;5065498;28;19925;-80
2021/07/07 00:58:34;;;;;;;;;;;;;;;-142.75;59.35;76538.78;5076842;28;19940;-81
2021/07/07 01:01:02;;;;;;;;;;;;;;;-142.75;59.30;76534.84;5071302;28;20369;-79
2021/07/07 01:03:27;;;;;;;;;;;;;;;-142.75;59.69;76550.59;5066497;28;21492;-78
2021/07/07 01:05:52;;;;;;;;;;;;;;;-142.75;59.79;76568.31;5079340;28;19923;-83
2021/07/07 01:08:17;;;;;;;;;;;;;;;-142.75;60.90;76570.28;5078019;28;20019;-80
2021/07/07 01:10:43;;;;;;;;;;;;;;;-142.75;60.86;76570.28;5058984;28;19916;-81
2021/07/07 01:13:08;;;;;;;;;;;;;;;-142.75;59.97;76566.34;5065104;28;19921;-80
2021/07/07 01:15:35;;;;;;;;;;;;;;;-142.75;60.56;76560.44;5062682;28;19916;-81
2021/07/07 01:18:00;;;;;;;;;;;;;;;-142.75;60.73;76566.34;5073317;28;19952;-78
2021/07/07 01:20:25;;;;;;;;;;;;;;;-142.75;60.00;76552.56;5080911;28;19969;-82
2021/07/07 01:22:51;;;;;;;;;;;;;;;-142.75;59.97;76552.56;5077716;28;20528;-78
2021/07/07 01:25:17;;;;;;;;;;;;;;;-142.75;60.27;76550.59;5066930;28;20297;-79
2021/07/07 01:27:43;;;;;;;;;;;;;;;-142.75;60.82;76554.53;5073707;28;19923;-81
2021/07/07 01:30:09;;;;;;;;;;;;;;;-142.75;61.01;76554.53;5058587;28;20401;-79
2021/07/07 01:32:35;;;;;;;;;;;;;;;-142.75;60.88;76558.47;5075605;28;19934;-79
2021/07/07 01:35:01;;;;;;;;;;;;;;;-142.75;61.09;76560.44;5074570;28;19916;-78
2021/07/07 01:37:27;;;;;;;;;;;;;;;-142.75;61.45;76562.41;5066454;28;20016;-78
2021/07/07 01:39:52;;;;;;;;;;;;;;;-142.75;61.48;76566.34;5077882;28;20629;-78
2021/07/07 01:42:18;;;;;;;;;;;;;;;-142.75;61.50;76556.50;5063919;28;19968;-79
2021/07/07 01:44:43;;;;;;;;;;;;;;;-142.75;61.21;76546.66;5063664;28;19916;-80
2021/07/07 01:47:08;;;;;;;;;;;;;;;-142.75;61.85;76542.72;5064515;28;19917;-80
2021/07/07 01:49:34;;;;;;;;;;;;;;;-142.75;61.82;76548.63;5061002;28;20017;-81
2021/07/07 01:51:59;;;;;;;;;;;;;;;-142.75;62.27;76544.69;5065075;28;20051;-79
2021/07/07 01:54:24;;;;;;;;;;;;;;;-142.75;62.77;76534.84;5061834;28;19917;-79
2021/07/07 01:56:49;;;;;;;;;;;;;;;-142.75;62.98;76554.53;5080850;28;20025;-78
2021/07/07 01:59:15;;;;;;;;;;;;;;;-142.75;63.89;76562.41;5066521;28;19920;-79
2021/07/07 02:01:40;;;;;;;;;;;;;;;-142.75;63.99;76562.41;5079521;28;19917;-77
2021/07/07 02:04:05;;;;;;;;;;;;;;;-142.75;64.22;76558.47;5060327;28;19916;-80
2021/07/07 02:06:30;;;;;;;;;;;;;;;-142.75;63.77;76554.53;5076249;28;19923;-80
2021/07/07 02:08:59;;;;;;;;;;;;;;;-142.75;64.08;76562.41;5075998;28;19971;-79
2021/07/07 02:11:25;;;;;;;;;;;;;;;-142.75;64.12;76560.44;5070293;28;19992;-79
2021/07/07 02:13:50;;;;;;;;;;;;;;;-142.75;64.08;76558.47;5065997;28;20023;-79
2021/07/07 02:16:16;;;;;;;;;;;;;;;-142.75;64.11;76546.66;5074250;28;20006;-79
2021/07/07 02:18:41;;;;;;;;;;;;;;;-142.75;63.87;76542.72;5057315;28;19939;-80
2021/07/07 02:21:06;;;;;;;;;;;;;;;-142.75;63.84;76532.88;5068537;28;19995;-80
2021/07/07 02:23:31;;;;;;;;;;;;;;;-142.75;63.26;76527.00;5068015;28;19924;-80
2021/07/07 02:25:57;;;;;;;;;;;;;;;-142.75;63.54;76538.78;5074841;28;20289;-79
2021/07/07 02:28:24;;;;;;;;;;;;;;;-142.75;63.61;76534.84;5076706;28;19916;-78
2021/07/07 02:30:49;;;;;;;;;;;;;;;-142.75;63.40;76530.91;5076727;28;19920;-80
2021/07/07 02:33:15;;;;;;;;;;;;;;;-142.75;63.78;76534.84;5062389;28;19926;-80
2021/07/07 02:35:41;;;;;;;;;;;;;;;-142.75;63.82;76540.75;5059740;28;19923;-79
2021/07/07 02:38:08;;;;;;;;;;;;;;;-142.75;63.73;76534.84;5073210;28;20443;-79
2021/07/07 02:40:34;;;;;;;;;;;;;;;-142.75;63.54;76534.84;5060138;28;20266;-78
2021/07/07 02:43:00;;;;;;;;;;;;;;;-142.75;63.20;76528.97;5067601;28;19924;-79
2021/07/07 02:45:26;;;;;;;;;;;;;;;-142.75;63.11;76523.06;5075819;28;20300;-79
2021/07/07 02:47:51;;;;;;;;;;;;;;;-142.75;63.21;76525.03;5061584;28;20428;-80
2021/07/07 02:50:17;;;;;;;;;;;;;;;-142.75;63.24;76528.97;5074244;28;19951;-79
2021/07/07 02:52:43;;;;;;;;;;;;;;;-142.75;63.03;76530.91;5063653;28;19940;-79
2021/07/07 02:55:09;;;;;;;;;;;;;;;-142.75;63.27;76544.69;5060803;28;19970;-80
2021/07/07 03:00:19;;;;;;;;;;;;;;;-142.75;63.85;76550.59;5069475;28;19928;-80
2021/07/07 03:02:44;;;;;;;;;;;;;;;-142.75;64.01;76556.50;5082478;28;20382;-80
2021/07/07 03:05:09;;;;;;;;;;;;;;;-142.75;64.07;76554.53;5072663;28;19916;-78
2021/07/07 03:07:34;;;;;;;;;;;;;;;-142.75;64.30;76558.47;5080123;28;19936;-79
2021/07/07 03:10:02;;;;;;;;;;;;;;;-142.75;64.44;76568.31;5062992;28;19966;-82
2021/07/07 03:12:27;;;;;;;;;;;;;;;-142.75;64.40;76558.47;5059444;28;19924;-80
2021/07/07 03:14:53;;;;;;;;;;;;;;;-142.75;64.18;76552.56;5066591;28;19926;-82
2021/07/07 03:17:18;;;;;;;;;;;;;;;-142.75;64.41;76552.56;5078763;28;20377;-81
2021/07/07 03:19:43;;;;;;;;;;;;;;;-142.75;64.35;76554.53;5062409;28;19920;-79
2021/07/07 03:22:08;;;;;;;;;;;;;;;-142.75;64.62;76566.34;5083060;28;20463;-80
2021/07/07 03:24:33;;;;;;;;;;;;;;;-142.75;64.75;76564.38;5069229;28;20382;-79
2021/07/07 03:26:58;;;;;;;;;;;;;;;-142.75;64.60;76562.41;5067806;28;19994;-79
2021/07/07 03:29:24;;;;;;;;;;;;;;;-142.75;64.19;76558.47;5083091;28;19916;-79
2021/07/07 03:31:49;;;;;;;;;;;;;;;-142.75;64.56;76564.38;5064045;28;19921;-81
2021/07/07 03:34:14;;;;;;;;;;;;;;;-142.75;64.66;76568.31;5075817;28;19923;-79
2021/07/07 03:36:39;;;;;;;;;;;;;;;-142.75;64.64;76572.25;5076678;28;19917;-79
2021/07/07 03:39:05;;;;;;;;;;;;;;;-142.75;64.81;76582.09;5070539;28;19917;-80
2021/07/07 03:41:32;;;;;;;;;;;;;;;-142.75;64.66;76576.19;5064465;28;20431;-79
2021/07/07 03:43:58;;;;;;;;;;;;;;;-142.75;64.60;76562.41;5062151;28;20207;-79
2021/07/07 03:46:23;;;;;;;;;;;;;;;-142.75;64.52;76564.38;5076378;28;19932;-79
2021/07/07 03:48:48;;;;;;;;;;;;;;;-142.75;64.65;76562.41;5063617;28;20282;-80
2021/07/07 03:51:13;;;;;;;;;;;;;;;-142.75;65.04;76572.25;5064453;28;19936;-78
2021/07/07 03:53:38;;;;;;;;;;;;;;;-142.75;65.30;76576.19;5071549;28;19920;-79
2021/07/07 03:56:04;;;;;;;;;;;;;;;-142.75;65.15;76580.13;5076966;28;19917;-79
2021/07/07 03:58:29;;;;;;;;;;;;;;;-142.75;65.00;76574.22;5061310;28;19962;-79
2021/07/07 04:00:54;;;;;;;;;;;;;;;-142.75;65.31;76582.09;5088726;22;19936;-79
2021/07/07 04:03:19;;;;;;;;;;;;;;;-142.75;65.58;76586.03;5055908;28;19928;-81
2021/07/07 04:05:44;;;;;;;;;;;;;;;-142.75;65.60;76593.91;5055715;28;19940;-81
2021/07/07 04:08:10;;;;;;;;;;;;;;;-142.75;65.51;76582.09;5057342;28;20401;-80
2021/07/07 04:10:35;;;;;;;;;;;;;;;-142.75;65.40;76570.28;5055379;28;19940;-80
2021/07/07 04:13:00;;;;;;;;;;;;;;;-142.75;65.66;76574.22;5056308;28;19920;-81
2021/07/07 04:15:25;;;;;;;;;;;;;;;-142.75;65.46;76578.16;5056328;28;19924;-81
2021/07/07 04:17:50;;;;;;;;;;;;;;;-142.75;65.31;76582.09;5057224;28;19966;-83
2021/07/07 04:20:18;;;;;;;;;;;;;;;-142.75;65.21;76574.22;5055924;28;20478;-78
2021/07/07 04:22:43;;;;;;;;;;;;;;;-142.75;65.23;76562.41;5057194;28;19923;-79
2021/07/07 04:25:09;;;;;;;;;;;;;;;-142.75;64.97;76554.53;5059000;28;20400;-78
2021/07/07 04:27:36;;;;;;;;;;;;;;;-142.75;64.44;76542.72;5056732;28;19924;-79
2021/07/07 04:30:03;;;;;;;;;;;;;;;-142.75;64.78;76538.78;5072336;28;19924;-79
2021/07/07 04:32:28;;;;;;;;;;;;;;;-142.75;64.31;76527.00;5054598;28;19992;-79
2021/07/07 04:34:54;;;;;;;;;;;;;;;-142.75;64.04;76521.09;5056513;28;19951;-81
2021/07/07 04:37:19;;;;;;;;;;;;;;;-142.75;64.13;76521.09;5055424;28;19917;-78
2021/07/07 04:39:44;;;;;;;;;;;;;;;-142.75;64.36;76523.06;5056262;28;19916;-82
2021/07/07 04:42:10;;;;;;;;;;;;;;;-142.75;64.25;76519.13;5055050;28;19956;-80
2021/07/07 04:44:35;;;;;;;;;;;;;;;-142.75;64.61;76523.06;5056964;28;20005;-81
2021/07/07 04:47:00;;;;;;;;;;;;;;;-142.75;64.29;76519.13;5056567;28;19917;-79
2021/07/07 04:49:26;;;;;;;;;;;;;;;-142.75;63.45;76513.22;5056090;28;19917;-79
2021/07/07 04:51:51;;;;;;;;;;;;;;;-142.75;63.73;76505.34;5052797;28;20344;-79
2021/07/07 04:54:16;;;;;;;;;;;;;;;-142.75;63.43;76495.50;5054942;28;20002;-81
2021/07/07 04:56:44;;;;;;;;;;;;;;;-142.75;62.56;76485.66;5054152;28;19984;-77
2021/07/07 04:59:09;;;;;;;;;;;;;;;-142.75;62.46;76479.75;5054981;28;20004;-80
2021/07/07 05:01:36;;;;;;;;;;;;;;;-142.75;63.08;76479.75;5055527;28;20402;-79
2021/07/07 05:04:02;;;;;;;;;;;;;;;-142.75;62.76;76477.78;5056380;28;19920;-80
2021/07/07 05:06:28;;;;;;;;;;;;;;;-142.75;63.24;76479.75;5055113;28;19928;-78
2021/07/07 05:08:54;;;;;;;;;;;;;;;-142.75;63.28;76479.75;5056545;28;20008;-81
2021/07/07 05:11:19;;;;;;;;;;;;;;;-142.75;63.46;76479.75;5053999;28;19947;-80
2021/07/07 05:13:44;;;;;;;;;;;;;;;-142.75;63.36;76471.88;5072534;28;19984;-79
2021/07/07 05:16:11;;;;;;;;;;;;;;;-142.75;63.22;76460.06;5056094;28;19917;-81
2021/07/07 05:18:36;;;;;;;;;;;;;;;-142.75;62.99;76456.13;5055207;28;19925;-82
2021/07/07 05:21:01;;;;;;;;;;;;;;;-142.75;62.23;76440.38;5054496;28;20004;-82
2021/07/07 05:23:26;;;;;;;;;;;;;;;-142.75;62.27;76430.53;5055836;28;19921;-80
2021/07/07 05:25:52;;;;;;;;;;;;;;;-142.75;61.72;76424.63;5055470;28;20398;-79
2021/07/07 05:28:17;;;;;;;;;;;;;;;-142.75;60.99;76440.38;5054520;28;20363;-79
2021/07/07 05:30:42;;;;;;;;;;;;;;;-142.75;61.58;76426.59;5052324;28;19917;-77
2021/07/07 05:33:09;;;;;;;;;;;;;;;-142.75;61.12;76440.38;5052719;28;20378;-78
2021/07/07 05:35:35;;;;;;;;;;;;;;;-142.75;61.07;76428.56;5054449;28;19917;-77
2021/07/07 05:38:00;;;;;;;;;;;;;;;-142.75;60.82;76414.78;5052914;28;19916;-78
2021/07/07 05:40:26;;;;;;;;;;;;;;;-142.75;60.70;76404.94;5053514;28;19917;-78
2021/07/07 05:42:54;;;;;;;;;;;;;;;-142.75;60.05;76383.28;5068968;28;19917;-80
2021/07/07 05:45:20;;;;;;;;;;;;;;;-142.75;59.58;76341.97;5055295;28;19976;-80
2021/07/07 05:47:46;;;;;;;;;;;;;;;-142.75;59.01;76316.38;5055233;28;19974;-79
2021/07/07 05:50:11;;;;;;;;;;;;;;;-142.75;58.85;76298.66;5054082;28;20406;-78
2021/07/07 05:52:36;;;;;;;;;;;;;;;-142.75;58.51;76275.03;5055080;28;20447;-79
2021/07/07 05:55:02;;;;;;;;;;;;;;;-142.75;58.54;76219.91;5054601;28;19916;-79
2021/07/07 05:57:39;;;;;;;;;;;;;;;-142.75;57.17;76149.06;5056455;28;19974;-79
2021/07/07 06:00:10;;;;;;;;;;;;;;;-142.75;55.66;76093.94;5053180;28;20385;-78
2021/07/07 06:02:36;;;;;;;;;;;;;;;-142.75;54.39;76048.69;5054870;28;19920;-78
2021/07/07 06:05:01;;;;;;;;;;;;;;;-142.75;54.29;76027.03;5055165;28;19916;-79
2021/07/07 06:07:26;;;;;;;;;;;;;;;-142.75;52.43;76054.59;5054440;28;20360;-78
2021/07/07 06:09:51;;;;;;;;;;;;;;;-142.75;53.53;76078.19;5051059;28;19917;-78
2021/07/07 06:12:16;;;;;;;;;;;;;;;-142.75;54.31;76160.88;5051219;28;19932;-78
2021/07/07 06:14:41;;;;;;;;;;;;;;;-142.75;55.70;76168.75;5054402;28;19980;-80
2021/07/07 06:17:07;;;;;;;;;;;;;;;-142.75;55.24;76182.53;5053030;28;20298;-79
2021/07/07 06:19:32;;;;;;;;;;;;;;;-142.75;55.14;76176.63;5051882;28;19924;-77
2021/07/07 06:22:00;;;;;;;;;;;;;;;-142.75;55.18;76190.41;5055420;28;19979;-79
2021/07/07 06:24:25;;;;;;;;;;;;;;;-142.75;54.73;76127.41;5057659;28;19920;-78
2021/07/07 06:26:50;;;;;;;;;;;;;;;-142.75;54.23;76068.38;5057793;28;19936;-79
2021/07/07 06:29:17;;;;;;;;;;;;;;;-142.75;52.94;75991.59;5059227;28;20012;-79
2021/07/07 06:31:43;;;;;;;;;;;;;;;-142.75;53.13;75964.03;5060010;28;19923;-79
2021/07/07 06:34:08;;;;;;;;;;;;;;;-142.75;52.66;76062.47;5073391;28;20393;-78
2021/07/07 06:36:33;;;;;;;;;;;;;;;-142.75;52.66;76042.78;5052961;28;19917;-77
2021/07/07 06:38:59;;;;;;;;;;;;;;;-142.75;53.03;75995.53;5052856;28;19917;-77
2021/07/07 06:41:24;;;;;;;;;;;;;;;-142.75;51.89;75938.47;5053624;28;19916;-76
2021/07/07 06:43:49;;;;;;;;;;;;;;;-142.75;51.55;75845.97;5053580;28;19928;-78
2021/07/07 06:46:14;;;;;;;;;;;;;;;-142.75;51.02;75887.28;5053751;28;19924;-77
2021/07/07 06:48:39;;;;;;;;;;;;;;;-142.75;49.90;75928.63;5054484;28;19925;-78
2021/07/07 06:51:05;;;;;;;;;;;;;;;-142.75;49.45;75859.72;5054249;28;19951;-78
2021/07/07 06:53:30;;;;;;;;;;;;;;;-142.75;50.36;75954.22;5055046;28;19925;-78
2021/07/07 06:55:55;;;;;;;;;;;;;;;-142.75;51.04;75932.56;5056898;28;19924;-79
2021/07/07 06:58:20;;;;;;;;;;;;;;;-142.75;52.97;76121.50;5053424;28;19939;-78
2021/07/07 07:00:45;;;;;;;;;;;;;;;-142.75;52.63;76036.88;5054828;28;20066;-80
2021/07/07 07:03:11;;;;;;;;;;;;;;;-142.75;51.37;75885.31;5056280;28;19923;-78
2021/07/07 07:05:36;;;;;;;;;;;;;;;-142.75;49.13;75749.53;5055703;28;19917;-80
2021/07/07 07:08:02;;;;;;;;;;;;;;;-142.75;48.13;75806.59;5054716;28;20007;-78
2021/07/07 07:10:27;;;;;;;;;;;;;;;-142.75;49.56;75800.69;5053805;28;19921;-78
2021/07/07 07:12:52;;;;;;;;;;;;;;;-142.75;47.52;75759.38;5053885;28;19921;-78
2021/07/07 07:15:18;;;;;;;;;;;;;;;-142.75;48.73;75655.06;5055324;28;19986;-79
2021/07/07 07:17:43;;;;;;;;;;;;;;;-142.75;46.69;75676.69;5054852;28;19967;-79
2021/07/07 07:20:10;;;;;;;;;;;;;;;-142.75;46.50;75643.25;5054318;28;19917;-80
2021/07/07 07:22:36;;;;;;;;;;;;;;;-142.75;47.80;75643.25;5056883;28;20342;-79
2021/07/07 07:25:02;;;;;;;;;;;;;;;-142.75;47.73;75700.31;5055290;28;19923;-76
2021/07/07 07:27:27;;;;;;;;;;;;;;;-142.75;48.66;75739.69;5051911;28;19921;-77
2021/07/07 07:29:52;;;;;;;;;;;;;;;-142.75;48.41;75727.88;5050745;28;19925;-77
2021/07/07 07:32:17;;;;;;;;;;;;;;;-142.75;47.02;75617.66;5052049;28;19931;-77
2021/07/07 07:34:43;;;;;;;;;;;;;;;-142.75;46.19;75558.63;5051775;28;20357;-79
2021/07/07 07:37:13;;;;;;;;;;;;;;;-142.75;45.04;75588.16;5052484;28;19916;-77
2021/07/07 07:39:46;;;;;;;;;;;;;;;-142.75;46.22;75629.47;5053818;28;19924;-76
2021/07/07 07:42:12;;;;;;;;;;;;;;;-142.75;45.57;75613.72;5054358;28;19921;-76
2021/07/07 07:44:38;;;;;;;;;;;;;;;-142.75;47.08;75664.91;5051094;28;19928;-76
2021/07/07 07:47:03;;;;;;;;;;;;;;;-142.75;46.33;75698.34;5050412;28;19916;-76
2021/07/07 07:49:28;;;;;;;;;;;;;;;-142.75;46.99;75676.69;5050190;28;19917;-76
2021/07/07 07:51:53;;;;;;;;;;;;;;;-142.75;46.08;75546.81;5051744;28;19917;-76
2021/07/07 07:54:19;;;;;;;;;;;;;;;-142.75;42.59;75446.44;5050948;28;20279;-76
2021/07/07 07:56:44;;;;;;;;;;;;;;;-142.75;41.21;75332.31;5049621;28;19917;-75
2021/07/07 07:59:09;;;;;;;;;;;;;;;-142.75;41.99;75497.63;5050674;28;19929;-76
2021/07/07 08:01:34;;;;;;;;;;;;;;;-142.75;42.79;75440.53;5049761;28;20019;-76
2021/07/07 08:04:03;;;;;;;;;;;;;;;-142.75;42.51;75346.09;5051534;28;19923;-76
2021/07/07 08:06:28;;;;;;;;;;;;;;;-142.75;40.89;75369.69;5049241;28;19916;-76
2021/07/07 08:08:54;;;;;;;;;;;;;;;-142.75;40.04;75287.06;5049217;28;19924;-77
2021/07/07 08:11:20;;;;;;;;;;;;;;;-142.75;40.82;75107.97;5048915;28;19917;-76
2021/07/07 08:13:45;;;;;;;;;;;;;;;-142.75;39.49;75220.16;5049231;28;20411;-78
2021/07/07 08:16:10;;;;;;;;;;;;;;;-142.75;40.86;75302.78;5049339;28;20554;-76
2021/07/07 08:18:35;;;;;;;;;;;;;;;-142.75;41.86;75464.16;5050696;28;19916;-78
2021/07/07 08:21:00;;;;;;;;;;;;;;;-142.75;43.88;75680.63;5051486;28;19920;-77
2021/07/07 08:23:26;;;;;;;;;;;;;;;-142.75;45.70;75745.59;5049871;28;20549;-81
2021/07/07 08:25:52;;;;;;;;;;;;;;;-142.75;47.03;75798.72;5048670;28;19917;-78
2021/07/07 08:28:17;;;;;;;;;;;;;;;-142.75;47.58;75920.75;5050600;28;19920;-76
2021/07/07 08:30:42;;;;;;;;;;;;;;;-142.75;49.19;75849.91;5049447;28;19916;-77
2021/07/07 08:33:08;;;;;;;;;;;;;;;-142.75;47.65;75751.50;5048724;28;20398;-78
2021/07/07 08:35:37;;;;;;;;;;;;;;;-142.75;45.74;75574.38;5050455;28;19924;-75
2021/07/07 08:38:02;;;;;;;;;;;;;;;-142.75;43.53;75466.13;5049229;28;19916;-78
2021/07/07 08:40:27;;;;;;;;;;;;;;;-142.75;40.76;75448.41;5050585;28;19924;-76
2021/07/07 08:42:52;;;;;;;;;;;;;;;-142.75;42.16;75487.78;5049331;28;19947;-77
2021/07/07 08:45:18;;;;;;;;;;;;;;;-142.75;42.74;75582.25;5050130;28;19924;-76
2021/07/07 08:47:44;;;;;;;;;;;;;;;-142.75;43.88;75594.06;5050759;28;19970;-77
2021/07/07 08:50:11;;;;;;;;;;;;;;;-142.75;44.65;75605.84;5048986;28;19924;-77
2021/07/07 08:52:38;;;;;;;;;;;;;;;-142.75;43.24;75501.56;5050875;28;19920;-77
2021/07/07 08:55:03;;;;;;;;;;;;;;;-142.75;41.64;75542.88;5050214;28;20335;-81
2021/07/07 08:57:29;;;;;;;;;;;;;;;-142.75;42.90;75574.38;5048325;28;20000;-75
2021/07/07 08:59:54;;;;;;;;;;;;;;;-142.75;43.88;75678.66;5049855;28;20298;-76
2021/07/07 09:02:19;;;;;;;;;;;;;;;-142.75;44.75;75775.09;5050874;28;19924;-78
2021/07/07 09:04:45;;;;;;;;;;;;;;;-142.75;45.27;75775.09;5051484;28;20007;-75
2021/07/07 09:07:14;;;;;;;;;;;;;;;-142.75;46.15;75806.59;5050029;28;19959;-77
2021/07/07 09:09:47;;;;;;;;;;;;;;;-142.75;46.49;75883.34;5050167;28;20011;-77
2021/07/07 09:12:15;;;;;;;;;;;;;;;-142.75;47.38;75912.88;5048286;28;19917;-77
2021/07/07 09:14:42;;;;;;;;;;;;;;;-142.75;48.22;75934.53;5049794;28;20294;-76
2021/07/07 09:17:11;;;;;;;;;;;;;;;-142.75;47.32;75881.38;5050738;28;19928;-78
2021/07/07 09:19:38;;;;;;;;;;;;;;;-142.75;47.43;75828.25;5050173;28;19925;-76
2021/07/07 09:22:07;;;;;;;;;;;;;;;-142.75;46.57;75822.34;5049125;28;19927;-76
2021/07/07 09:24:33;;;;;;;;;;;;;;;-142.75;46.89;75798.72;5050501;28;20394;-76
2021/07/07 09:27:00;;;;;;;;;;;;;;;-142.75;45.42;75889.25;5048894;28;20370;-77
2021/07/07 09:29:36;;;;;;;;;;;;;;;-142.75;46.81;75926.66;5048538;28;19924;-77
2021/07/07 09:32:11;;;;;;;;;;;;;;;-142.75;47.21;75934.53;5050137;28;19960;-78
2021/07/07 09:34:37;;;;;;;;;;;;;;;-142.75;48.30;75940.44;5050476;28;19920;-77
2021/07/07 09:37:02;;;;;;;;;;;;;;;-142.75;47.24;75855.81;5048460;28;19927;-79
2021/07/07 09:39:30;;;;;;;;;;;;;;;-142.75;46.29;75788.88;5049821;28;20012;-75
2021/07/07 09:41:56;;;;;;;;;;;;;;;-142.75;45.44;75840.06;5049146;28;20357;-78
2021/07/07 09:44:21;;;;;;;;;;;;;;;-142.75;46.55;75781.00;5048670;28;20329;-81
2021/07/07 09:46:47;;;;;;;;;;;;;;;-142.75;44.43;75629.47;5050081;28;19925;-79
2021/07/07 09:49:13;;;;;;;;;;;;;;;-142.75;41.99;75507.47;5048988;28;19916;-77
2021/07/07 09:51:38;;;;;;;;;;;;;;;-142.75;42.54;75361.84;5048159;28;20032;-75
2021/07/07 09:54:04;;;;;;;;;;;;;;;-142.75;40.59;75168.97;5049929;28;20449;-76
2021/07/07 09:56:31;;;;;;;;;;;;;;;-142.75;38.65;75206.38;5050240;28;19947;-76
2021/07/07 09:58:56;;;;;;;;;;;;;;;-142.75;38.92;75239.81;5049674;28;19916;-79
2021/07/07 10:01:22;;;;;;;;;;;;;;;-142.75;36.69;75167.00;5093923;22;20488;-81
2021/07/07 10:03:47;;;;;;;;;;;;;;;-142.75;37.24;75222.13;5075240;28;19921;-83
2021/07/07 10:06:14;;;;;;;;;;;;;;;-142.75;37.06;75106.00;5083629;28;19916;-81
2021/07/07 10:08:40;;;;;;;;;;;;;;;-142.75;37.56;75111.91;5086086;28;19923;-82
2021/07/07 10:11:06;;;;;;;;;;;;;;;-142.75;36.02;75062.72;5084260;28;19935;-84
2021/07/07 10:13:32;;;;;;;;;;;;;;;-142.75;35.30;74972.22;5084927;28;20301;-82
2021/07/07 10:15:57;;;;;;;;;;;;;;;-142.75;34.07;74940.72;5085383;28;19916;-81
2021/07/07 10:18:23;;;;;;;;;;;;;;;-142.75;34.55;74877.75;5082302;28;19916;-83
2021/07/07 10:20:49;;;;;;;;;;;;;;;-142.75;35.83;75096.19;5080033;28;19982;-87
2021/07/07 10:23:15;;;;;;;;;;;;;;;-142.75;37.44;75170.94;5093250;28;19924;-82
2021/07/07 10:25:42;;;;;;;;;;;;;;;-142.75;37.35;75096.19;5086128;28;19916;-83
2021/07/07 10:28:10;;;;;;;;;;;;;;;-142.75;37.59;75066.66;5092650;28;19915;-84
2021/07/07 10:30:44;;;;;;;;;;;;;;;-142.75;35.84;75133.56;5085828;28;19962;-82
2021/07/07 10:33:10;;;;;;;;;;;;;;;-142.75;36.61;75222.13;5085309;28;20377;-83
2021/07/07 10:35:36;;;;;;;;;;;;;;;-142.75;37.60;75176.84;5084290;28;19923;-82
2021/07/07 10:38:02;;;;;;;;;;;;;;;-142.75;37.42;75109.94;5094208;28;19916;-83
2021/07/07 10:40:28;;;;;;;;;;;;;;;-142.75;36.66;75096.19;5092788;28;20269;-83
2021/07/07 10:42:54;;;;;;;;;;;;;;;-142.75;36.60;75029.28;5092569;28;19931;-78
2021/07/07 10:45:34;;;;;;;;;;;;;;;-142.75;34.58;75011.56;5084149;28;20491;-80
2021/07/07 10:48:18;;;;;;;;;;;;;;;-142.75;35.57;75066.66;5092831;28;19916;-81
2021/07/07 10:50:43;;;;;;;;;;;;;;;-142.75;35.81;74997.78;5078381;28;19923;-81
2021/07/07 10:53:20;;;;;;;;;;;;;;;-142.75;37.15;75133.56;5083749;28;19928;-81
2021/07/07 10:55:46;;;;;;;;;;;;;;;-142.75;37.58;75208.34;5092219;28;19917;-80
2021/07/07 10:58:23;;;;;;;;;;;;;;;-142.75;37.96;75375.59;5082838;28;19916;-79
2021/07/07 11:00:48;;;;;;;;;;;;;;;-142.75;38.18;75373.63;5093103;28;19920;-78
2021/07/07 11:03:18;;;;;;;;;;;;;;;-142.75;38.94;75458.25;5075492;28;19924;-82
2021/07/07 11:05:43;;;;;;;;;;;;;;;-142.75;39.83;75468.09;5079928;28;19916;-81
2021/07/07 11:08:16;;;;;;;;;;;;;;;-142.75;39.91;75470.06;5088496;28;20324;-80
2021/07/07 11:10:57;;;;;;;;;;;;;;;-142.75;39.45;75523.19;5096417;28;19969;-80
2021/07/07 11:13:23;;;;;;;;;;;;;;;-142.75;39.88;75405.13;5094871;28;19960;-82
2021/07/07 11:15:48;;;;;;;;;;;;;;;-142.75;38.81;75385.44;5088290;28;20393;-80
2021/07/07 11:18:18;;;;;;;;;;;;;;;-142.75;39.03;75416.94;5095751;28;19923;-80
2021/07/07 11:20:44;;;;;;;;;;;;;;;-142.75;38.90;75428.75;5088967;28;19999;-80
2021/07/07 11:23:11;;;;;;;;;;;;;;;-142.75;38.80;75385.44;5096759;28;20412;-79
2021/07/07 11:25:37;;;;;;;;;;;;;;;-142.75;39.80;75387.41;5097625;28;20297;-82
2021/07/07 11:28:04;;;;;;;;;;;;;;;-142.75;39.61;75389.38;5097076;28;19922;-79
2021/07/07 11:30:29;;;;;;;;;;;;;;;-142.75;39.10;75365.75;5083367;28;19920;-80
2021/07/07 11:32:56;;;;;;;;;;;;;;;-142.75;38.56;75298.84;5096921;28;19946;-79
2021/07/07 11:35:27;;;;;;;;;;;;;;;-142.75;37.58;75314.59;5097674;28;19923;-79
2021/07/07 11:37:57;;;;;;;;;;;;;;;-142.75;38.81;75310.66;5096315;28;20401;-79
2021/07/07 11:40:23;;;;;;;;;;;;;;;-142.75;38.43;75363.78;5081126;28;19965;-79
2021/07/07 11:42:51;;;;;;;;;;;;;;;-142.75;39.19;75460.22;5095761;28;20082;-80
2021/07/07 11:45:25;;;;;;;;;;;;;;;-142.75;39.83;75385.44;5096250;28;19916;-78
2021/07/07 11:47:59;;;;;;;;;;;;;;;-142.75;39.45;75359.88;5093152;28;19916;-79
2021/07/07 11:50:26;;;;;;;;;;;;;;;-142.75;40.06;75430.72;5094882;28;20006;-80
2021/07/07 11:52:51;;;;;;;;;;;;;;;-142.75;39.24;75472.03;5095062;28;19932;-77
2021/07/07 11:55:16;;;;;;;;;;;;;;;-142.75;39.79;75472.03;5094092;28;20392;-78
2021/07/07 11:57:41;;;;;;;;;;;;;;;-142.75;40.34;75511.41;5094951;28;19923;-79
2021/07/07 12:00:07;;;;;;;;;;;;;;;-142.75;40.91;75525.16;5094529;28;19916;-79
2021/07/07 12:02:39;;;;;;;;;;;;;;;-142.75;40.43;75546.81;5095487;28;19951;-78
2021/07/07 12:05:04;;;;;;;;;;;;;;;-142.75;41.36;75607.81;5094448;28;20018;-78
2021/07/07 12:07:30;;;;;;;;;;;;;;;-142.75;41.05;75562.56;5076920;28;19951;-78
2021/07/07 12:09:55;;;;;;;;;;;;;;;-142.75;41.75;75568.47;5091087;28;19941;-78
2021/07/07 12:12:27;;;;;;;;;;;;;;;-142.75;40.98;75653.09;5094800;28;20373;-78
2021/07/07 12:14:53;;;;;;;;;;;;;;;-142.75;42.00;75682.59;5092537;28;19978;-78
2021/07/07 12:17:18;;;;;;;;;;;;;;;-142.75;40.91;75619.63;5094501;28;20415;-78
2021/07/07 12:19:43;;;;;;;;;;;;;;;-142.75;41.63;75657.03;5082804;28;19920;-78
2021/07/07 12:22:10;;;;;;;;;;;;;;;-142.75;42.17;75674.72;5093065;28;20278;-79
2021/07/07 12:24:36;;;;;;;;;;;;;;;-142.75;42.65;75664.91;5093637;28;20392;-78